sensor_id;sensor_type;location;lat;lon;timestamp;P1;durP1;ratioP1;P2;durP2;ratioP2
42978;SDS011;28616;44.746;19.678;2023-02-18T00:02:17;378.63;;;155.27;;
42978;SDS011;28616;44.746;19.678;2023-02-18T00:04:43;385.77;;;156.20;;
42978;SDS011;28616;44.746;19.678;2023-02-18T00:07:09;371.73;;;156.10;;
42978;SDS011;28616;44.746;19.678;2023-02-18T00:09:34;346.85;;;144.63;;
42978;SDS011;28616;44.746;19.678;2023-02-18T00:12:02;330.45;;;137.77;;
42978;SDS011;28616;44.746;19.678;2023-02-18T00:14:28;330.48;;;138.60;;
42978;SDS011;28616;44.746;19.678;2023-02-18T00:16:54;307.02;;;131.57;;
42978;SDS011;28616;44.746;19.678;2023-02-18T00:19:20;305.80;;;128.45;;
42978;SDS011;28616;44.746;19.678;2023-02-18T00:21:46;301.98;;;132.38;;
42978;SDS011;28616;44.746;19.678;2023-02-18T00:24:13;329.98;;;141.15;;
42978;SDS011;28616;44.746;19.678;2023-02-18T00:26:40;326.00;;;139.40;;
42978;SDS011;28616;44.746;19.678;2023-02-18T00:29:06;327.17;;;138.15;;
42978;SDS011;28616;44.746;19.678;2023-02-18T00:31:33;356.20;;;151.10;;
42978;SDS011;28616;44.746;19.678;2023-02-18T00:34:00;382.00;;;155.00;;
42978;SDS011;28616;44.746;19.678;2023-02-18T00:36:26;410.98;;;162.57;;
42978;SDS011;28616;44.746;19.678;2023-02-18T00:38:54;446.80;;;169.43;;
42978;SDS011;28616;44.746;19.678;2023-02-18T00:41:22;432.73;;;169.98;;
42978;SDS011;28616;44.746;19.678;2023-02-18T00:43:49;491.77;;;185.70;;
42978;SDS011;28616;44.746;19.678;2023-02-18T00:46:15;443.73;;;175.20;;
42978;SDS011;28616;44.746;19.678;2023-02-18T00:48:41;468.45;;;174.48;;
42978;SDS011;28616;44.746;19.678;2023-02-18T00:51:07;425.30;;;166.88;;
42978;SDS011;28616;44.746;19.678;2023-02-18T00:53:33;419.20;;;165.70;;
42978;SDS011;28616;44.746;19.678;2023-02-18T00:56:00;424.08;;;169.65;;
42978;SDS011;28616;44.746;19.678;2023-02-18T00:58:27;385.83;;;155.85;;
42978;SDS011;28616;44.746;19.678;2023-02-18T01:00:53;424.35;;;170.93;;
42978;SDS011;28616;44.746;19.678;2023-02-18T01:03:19;422.95;;;169.27;;
42978;SDS011;28616;44.746;19.678;2023-02-18T01:05:46;432.58;;;172.13;;
42978;SDS011;28616;44.746;19.678;2023-02-18T01:08:14;419.15;;;166.07;;
42978;SDS011;28616;44.746;19.678;2023-02-18T01:10:41;341.23;;;136.32;;
42978;SDS011;28616;44.746;19.678;2023-02-18T01:13:09;255.68;;;109.93;;
42978;SDS011;28616;44.746;19.678;2023-02-18T01:15:36;230.70;;;99.97;;
42978;SDS011;28616;44.746;19.678;2023-02-18T01:18:02;188.30;;;76.53;;
42978;SDS011;28616;44.746;19.678;2023-02-18T01:20:29;200.18;;;76.78;;
42978;SDS011;28616;44.746;19.678;2023-02-18T01:22:54;166.02;;;68.18;;
42978;SDS011;28616;44.746;19.678;2023-02-18T01:25:20;199.63;;;76.72;;
42978;SDS011;28616;44.746;19.678;2023-02-18T01:27:46;167.10;;;68.95;;
42978;SDS011;28616;44.746;19.678;2023-02-18T01:30:13;170.23;;;71.70;;
42978;SDS011;28616;44.746;19.678;2023-02-18T01:32:41;161.32;;;62.47;;
42978;SDS011;28616;44.746;19.678;2023-02-18T01:35:09;131.13;;;57.13;;
42978;SDS011;28616;44.746;19.678;2023-02-18T01:37:36;127.40;;;50.15;;
42978;SDS011;28616;44.746;19.678;2023-02-18T01:40:02;134.80;;;48.80;;
42978;SDS011;28616;44.746;19.678;2023-02-18T01:42:29;205.82;;;68.57;;
42978;SDS011;28616;44.746;19.678;2023-02-18T01:45:28;164.75;;;53.50;;
42978;SDS011;28616;44.746;19.678;2023-02-18T01:48:21;91.03;;;34.78;;
42978;SDS011;28616;44.746;19.678;2023-02-18T01:50:55;71.43;;;32.70;;
42978;SDS011;28616;44.746;19.678;2023-02-18T01:53:36;79.05;;;33.67;;
42978;SDS011;28616;44.746;19.678;2023-02-18T01:56:07;64.72;;;29.15;;
42978;SDS011;28616;44.746;19.678;2023-02-18T01:58:38;79.83;;;32.13;;
42978;SDS011;28616;44.746;19.678;2023-02-18T02:01:04;123.63;;;42.75;;
42978;SDS011;28616;44.746;19.678;2023-02-18T02:03:31;113.85;;;43.80;;
42978;SDS011;28616;44.746;19.678;2023-02-18T02:05:56;106.93;;;44.00;;
42978;SDS011;28616;44.746;19.678;2023-02-18T02:08:22;83.15;;;35.45;;
42978;SDS011;28616;44.746;19.678;2023-02-18T02:11:08;85.80;;;33.70;;
42978;SDS011;28616;44.746;19.678;2023-02-18T02:13:50;79.95;;;31.30;;
42978;SDS011;28616;44.746;19.678;2023-02-18T02:16:36;91.82;;;40.00;;
42978;SDS011;28616;44.746;19.678;2023-02-18T02:25:02;249.75;;;92.65;;
42978;SDS011;28616;44.746;19.678;2023-02-18T02:41:11;308.88;;;110.13;;
42978;SDS011;28616;44.746;19.678;2023-02-18T02:46:30;243.02;;;87.60;;
42978;SDS011;28616;44.746;19.678;2023-02-18T02:49:07;224.38;;;83.78;;
42978;SDS011;28616;44.746;19.678;2023-02-18T02:55:03;165.55;;;71.10;;
42978;SDS011;28616;44.746;19.678;2023-02-18T02:59:59;165.30;;;73.18;;
42978;SDS011;28616;44.746;19.678;2023-02-18T03:05:14;163.32;;;71.35;;
42978;SDS011;28616;44.746;19.678;2023-02-18T03:08:07;147.30;;;66.05;;
42978;SDS011;28616;44.746;19.678;2023-02-18T03:11:04;163.57;;;71.45;;
42978;SDS011;28616;44.746;19.678;2023-02-18T03:21:52;222.25;;;89.32;;
42978;SDS011;28616;44.746;19.678;2023-02-18T03:24:29;215.05;;;90.35;;
42978;SDS011;28616;44.746;19.678;2023-02-18T03:27:24;226.00;;;90.72;;
42978;SDS011;28616;44.746;19.678;2023-02-18T03:29:56;214.68;;;85.38;;
42978;SDS011;28616;44.746;19.678;2023-02-18T03:32:26;216.43;;;90.75;;
42978;SDS011;28616;44.746;19.678;2023-02-18T03:34:58;170.90;;;72.82;;
42978;SDS011;28616;44.746;19.678;2023-02-18T03:37:28;152.13;;;62.88;;
42978;SDS011;28616;44.746;19.678;2023-02-18T03:39:57;123.03;;;56.45;;
42978;SDS011;28616;44.746;19.678;2023-02-18T03:42:26;82.97;;;38.70;;
42978;SDS011;28616;44.746;19.678;2023-02-18T03:44:53;94.78;;;40.92;;
42978;SDS011;28616;44.746;19.678;2023-02-18T03:47:19;73.63;;;32.65;;
42978;SDS011;28616;44.746;19.678;2023-02-18T03:49:45;70.15;;;29.67;;
42978;SDS011;28616;44.746;19.678;2023-02-18T03:52:10;77.60;;;30.10;;
42978;SDS011;28616;44.746;19.678;2023-02-18T03:54:36;184.43;;;56.80;;
42978;SDS011;28616;44.746;19.678;2023-02-18T03:57:02;138.50;;;48.60;;
42978;SDS011;28616;44.746;19.678;2023-02-18T03:59:28;107.35;;;41.08;;
42978;SDS011;28616;44.746;19.678;2023-02-18T04:01:53;106.20;;;41.40;;
42978;SDS011;28616;44.746;19.678;2023-02-18T04:04:19;99.55;;;37.58;;
42978;SDS011;28616;44.746;19.678;2023-02-18T04:06:45;75.85;;;33.83;;
42978;SDS011;28616;44.746;19.678;2023-02-18T04:09:10;91.30;;;38.78;;
42978;SDS011;28616;44.746;19.678;2023-02-18T04:11:36;102.35;;;45.38;;
42978;SDS011;28616;44.746;19.678;2023-02-18T04:14:04;140.27;;;55.25;;
42978;SDS011;28616;44.746;19.678;2023-02-18T04:16:30;142.05;;;59.45;;
42978;SDS011;28616;44.746;19.678;2023-02-18T04:18:56;172.82;;;85.55;;
42978;SDS011;28616;44.746;19.678;2023-02-18T04:21:21;139.07;;;57.28;;
42978;SDS011;28616;44.746;19.678;2023-02-18T04:23:47;143.63;;;61.53;;
42978;SDS011;28616;44.746;19.678;2023-02-18T04:26:13;151.18;;;60.80;;
42978;SDS011;28616;44.746;19.678;2023-02-18T04:28:38;155.20;;;66.85;;
42978;SDS011;28616;44.746;19.678;2023-02-18T04:31:04;185.05;;;94.43;;
42978;SDS011;28616;44.746;19.678;2023-02-18T04:33:30;195.25;;;105.32;;
42978;SDS011;28616;44.746;19.678;2023-02-18T04:35:55;181.85;;;96.40;;
42978;SDS011;28616;44.746;19.678;2023-02-18T04:38:21;168.98;;;82.95;;
42978;SDS011;28616;44.746;19.678;2023-02-18T04:40:47;149.65;;;73.00;;
42978;SDS011;28616;44.746;19.678;2023-02-18T04:43:13;153.20;;;77.78;;
42978;SDS011;28616;44.746;19.678;2023-02-18T04:45:39;183.55;;;96.95;;
42978;SDS011;28616;44.746;19.678;2023-02-18T04:48:04;208.98;;;109.65;;
42978;SDS011;28616;44.746;19.678;2023-02-18T04:50:30;210.68;;;113.43;;
42978;SDS011;28616;44.746;19.678;2023-02-18T04:52:56;215.65;;;114.40;;
42978;SDS011;28616;44.746;19.678;2023-02-18T04:55:22;204.27;;;112.15;;
42978;SDS011;28616;44.746;19.678;2023-02-18T04:57:47;204.35;;;112.70;;
42978;SDS011;28616;44.746;19.678;2023-02-18T05:00:14;200.50;;;109.22;;
42978;SDS011;28616;44.746;19.678;2023-02-18T05:02:42;196.82;;;108.22;;
42978;SDS011;28616;44.746;19.678;2023-02-18T05:05:08;206.70;;;109.40;;
42978;SDS011;28616;44.746;19.678;2023-02-18T05:07:33;200.77;;;106.25;;
42978;SDS011;28616;44.746;19.678;2023-02-18T05:10:00;203.60;;;108.53;;
42978;SDS011;28616;44.746;19.678;2023-02-18T05:12:26;213.88;;;113.47;;
42978;SDS011;28616;44.746;19.678;2023-02-18T05:14:51;214.30;;;110.70;;
42978;SDS011;28616;44.746;19.678;2023-02-18T05:17:17;208.45;;;114.13;;
42978;SDS011;28616;44.746;19.678;2023-02-18T05:19:43;201.85;;;113.05;;
42978;SDS011;28616;44.746;19.678;2023-02-18T05:22:08;209.93;;;111.40;;
42978;SDS011;28616;44.746;19.678;2023-02-18T05:24:34;210.35;;;109.93;;
42978;SDS011;28616;44.746;19.678;2023-02-18T05:27:00;207.38;;;110.60;;
42978;SDS011;28616;44.746;19.678;2023-02-18T05:29:26;204.70;;;106.30;;
42978;SDS011;28616;44.746;19.678;2023-02-18T05:31:51;215.70;;;107.70;;
42978;SDS011;28616;44.746;19.678;2023-02-18T05:34:17;190.25;;;96.75;;
42978;SDS011;28616;44.746;19.678;2023-02-18T05:36:43;179.98;;;91.32;;
42978;SDS011;28616;44.746;19.678;2023-02-18T05:39:08;179.63;;;91.30;;
42978;SDS011;28616;44.746;19.678;2023-02-18T05:41:34;180.13;;;95.07;;
42978;SDS011;28616;44.746;19.678;2023-02-18T05:44:00;189.98;;;94.35;;
42978;SDS011;28616;44.746;19.678;2023-02-18T05:46:44;193.65;;;91.90;;
42978;SDS011;28616;44.746;19.678;2023-02-18T05:49:10;195.60;;;94.00;;
42978;SDS011;28616;44.746;19.678;2023-02-18T05:51:36;193.35;;;91.90;;
42978;SDS011;28616;44.746;19.678;2023-02-18T05:54:01;205.70;;;97.53;;
42978;SDS011;28616;44.746;19.678;2023-02-18T05:56:27;209.63;;;83.05;;
42978;SDS011;28616;44.746;19.678;2023-02-18T05:58:53;272.73;;;87.70;;
42978;SDS011;28616;44.746;19.678;2023-02-18T06:01:19;258.95;;;77.90;;
42978;SDS011;28616;44.746;19.678;2023-02-18T06:03:44;141.20;;;51.92;;
42978;SDS011;28616;44.746;19.678;2023-02-18T06:06:10;106.22;;;43.25;;
42978;SDS011;28616;44.746;19.678;2023-02-18T06:08:36;80.20;;;34.08;;
42978;SDS011;28616;44.746;19.678;2023-02-18T06:11:02;58.67;;;26.92;;
42978;SDS011;28616;44.746;19.678;2023-02-18T06:13:28;60.80;;;26.60;;
42978;SDS011;28616;44.746;19.678;2023-02-18T06:15:53;56.33;;;25.85;;
42978;SDS011;28616;44.746;19.678;2023-02-18T06:18:20;63.45;;;32.72;;
42978;SDS011;28616;44.746;19.678;2023-02-18T06:20:46;80.05;;;36.38;;
42978;SDS011;28616;44.746;19.678;2023-02-18T06:23:12;79.38;;;37.17;;
42978;SDS011;28616;44.746;19.678;2023-02-18T06:25:39;61.50;;;27.40;;
42978;SDS011;28616;44.746;19.678;2023-02-18T06:28:05;53.53;;;28.85;;
42978;SDS011;28616;44.746;19.678;2023-02-18T06:30:31;50.55;;;23.23;;
42978;SDS011;28616;44.746;19.678;2023-02-18T06:32:57;59.17;;;27.30;;
42978;SDS011;28616;44.746;19.678;2023-02-18T06:35:22;64.00;;;26.17;;
42978;SDS011;28616;44.746;19.678;2023-02-18T06:37:48;56.22;;;25.02;;
42978;SDS011;28616;44.746;19.678;2023-02-18T06:40:14;58.30;;;26.17;;
42978;SDS011;28616;44.746;19.678;2023-02-18T06:42:39;51.45;;;23.88;;
42978;SDS011;28616;44.746;19.678;2023-02-18T06:45:05;51.72;;;23.00;;
42978;SDS011;28616;44.746;19.678;2023-02-18T06:47:32;57.10;;;25.27;;
42978;SDS011;28616;44.746;19.678;2023-02-18T06:49:58;68.22;;;31.02;;
42978;SDS011;28616;44.746;19.678;2023-02-18T06:52:24;78.22;;;32.05;;
42978;SDS011;28616;44.746;19.678;2023-02-18T06:54:49;74.25;;;33.53;;
42978;SDS011;28616;44.746;19.678;2023-02-18T06:57:15;100.45;;;41.25;;
42978;SDS011;28616;44.746;19.678;2023-02-18T06:59:41;134.82;;;51.42;;
42978;SDS011;28616;44.746;19.678;2023-02-18T07:02:06;145.85;;;57.67;;
42978;SDS011;28616;44.746;19.678;2023-02-18T07:04:34;108.57;;;45.08;;
42978;SDS011;28616;44.746;19.678;2023-02-18T07:06:59;101.88;;;43.78;;
42978;SDS011;28616;44.746;19.678;2023-02-18T07:09:26;111.07;;;50.50;;
42978;SDS011;28616;44.746;19.678;2023-02-18T07:11:52;125.90;;;51.15;;
42978;SDS011;28616;44.746;19.678;2023-02-18T07:14:18;146.02;;;63.85;;
42978;SDS011;28616;44.746;19.678;2023-02-18T07:16:43;145.13;;;60.97;;
42978;SDS011;28616;44.746;19.678;2023-02-18T07:19:09;114.43;;;45.85;;
42978;SDS011;28616;44.746;19.678;2023-02-18T07:21:35;98.60;;;41.83;;
42978;SDS011;28616;44.746;19.678;2023-02-18T07:24:00;79.63;;;37.47;;
42978;SDS011;28616;44.746;19.678;2023-02-18T07:26:26;59.78;;;29.70;;
42978;SDS011;28616;44.746;19.678;2023-02-18T07:28:52;73.75;;;31.50;;
42978;SDS011;28616;44.746;19.678;2023-02-18T07:31:17;65.35;;;32.40;;
42978;SDS011;28616;44.746;19.678;2023-02-18T07:33:43;69.90;;;29.48;;
42978;SDS011;28616;44.746;19.678;2023-02-18T07:36:09;66.38;;;29.70;;
42978;SDS011;28616;44.746;19.678;2023-02-18T07:38:34;61.47;;;28.70;;
42978;SDS011;28616;44.746;19.678;2023-02-18T07:41:00;61.33;;;29.35;;
42978;SDS011;28616;44.746;19.678;2023-02-18T07:43:26;94.30;;;39.78;;
42978;SDS011;28616;44.746;19.678;2023-02-18T07:45:51;70.07;;;32.30;;
42978;SDS011;28616;44.746;19.678;2023-02-18T07:48:17;42.65;;;21.13;;
42978;SDS011;28616;44.746;19.678;2023-02-18T07:50:43;41.58;;;20.70;;
42978;SDS011;28616;44.746;19.678;2023-02-18T07:53:11;47.97;;;23.65;;
42978;SDS011;28616;44.746;19.678;2023-02-18T07:55:37;53.92;;;25.65;;
42978;SDS011;28616;44.746;19.678;2023-02-18T07:58:19;53.80;;;25.35;;
42978;SDS011;28616;44.746;19.678;2023-02-18T08:00:50;67.30;;;30.40;;
42978;SDS011;28616;44.746;19.678;2023-02-18T08:03:17;75.55;;;33.03;;
42978;SDS011;28616;44.746;19.678;2023-02-18T08:05:46;59.83;;;27.02;;
42978;SDS011;28616;44.746;19.678;2023-02-18T08:08:13;43.33;;;22.40;;
42978;SDS011;28616;44.746;19.678;2023-02-18T08:10:41;45.15;;;25.35;;
42978;SDS011;28616;44.746;19.678;2023-02-18T08:13:08;61.90;;;28.23;;
42978;SDS011;28616;44.746;19.678;2023-02-18T08:15:34;40.55;;;23.27;;
42978;SDS011;28616;44.746;19.678;2023-02-18T08:18:00;36.72;;;18.58;;
42978;SDS011;28616;44.746;19.678;2023-02-18T08:20:27;34.28;;;17.95;;
42978;SDS011;28616;44.746;19.678;2023-02-18T08:22:53;33.67;;;16.83;;
42978;SDS011;28616;44.746;19.678;2023-02-18T08:25:18;50.97;;;20.23;;
42978;SDS011;28616;44.746;19.678;2023-02-18T08:27:44;41.88;;;22.25;;
42978;SDS011;28616;44.746;19.678;2023-02-18T08:30:13;44.40;;;22.77;;
42978;SDS011;28616;44.746;19.678;2023-02-18T08:32:39;39.00;;;21.63;;
42978;SDS011;28616;44.746;19.678;2023-02-18T08:35:04;40.80;;;20.52;;
42978;SDS011;28616;44.746;19.678;2023-02-18T08:37:31;36.95;;;22.10;;
42978;SDS011;28616;44.746;19.678;2023-02-18T08:39:57;58.03;;;32.33;;
42978;SDS011;28616;44.746;19.678;2023-02-18T08:42:23;90.55;;;40.97;;
42978;SDS011;28616;44.746;19.678;2023-02-18T08:44:49;86.68;;;42.30;;
42978;SDS011;28616;44.746;19.678;2023-02-18T08:47:14;71.78;;;34.42;;
42978;SDS011;28616;44.746;19.678;2023-02-18T08:49:40;68.22;;;33.17;;
42978;SDS011;28616;44.746;19.678;2023-02-18T08:52:06;69.85;;;37.05;;
42978;SDS011;28616;44.746;19.678;2023-02-18T08:54:32;76.30;;;38.65;;
42978;SDS011;28616;44.746;19.678;2023-02-18T08:56:57;50.25;;;28.33;;
42978;SDS011;28616;44.746;19.678;2023-02-18T08:59:24;42.35;;;22.42;;
42978;SDS011;28616;44.746;19.678;2023-02-18T09:01:50;106.18;;;46.95;;
42978;SDS011;28616;44.746;19.678;2023-02-18T09:04:16;91.70;;;39.80;;
42978;SDS011;28616;44.746;19.678;2023-02-18T09:06:42;59.55;;;28.55;;
42978;SDS011;28616;44.746;19.678;2023-02-18T09:09:07;61.13;;;26.35;;
42978;SDS011;28616;44.746;19.678;2023-02-18T09:11:34;80.78;;;35.85;;
42978;SDS011;28616;44.746;19.678;2023-02-18T09:14:00;51.50;;;23.40;;
42978;SDS011;28616;44.746;19.678;2023-02-18T09:16:27;32.50;;;18.75;;
42978;SDS011;28616;44.746;19.678;2023-02-18T09:18:54;42.00;;;22.38;;
42978;SDS011;28616;44.746;19.678;2023-02-18T09:21:20;35.83;;;18.15;;
42978;SDS011;28616;44.746;19.678;2023-02-18T09:23:47;31.40;;;16.80;;
42978;SDS011;28616;44.746;19.678;2023-02-18T09:26:16;41.85;;;22.85;;
42978;SDS011;28616;44.746;19.678;2023-02-18T09:28:42;33.78;;;19.17;;
42978;SDS011;28616;44.746;19.678;2023-02-18T09:31:09;37.25;;;19.35;;
42978;SDS011;28616;44.746;19.678;2023-02-18T09:33:38;37.47;;;20.30;;
42978;SDS011;28616;44.746;19.678;2023-02-18T09:36:05;45.97;;;24.20;;
42978;SDS011;28616;44.746;19.678;2023-02-18T09:38:31;35.53;;;17.23;;
42978;SDS011;28616;44.746;19.678;2023-02-18T09:40:57;36.65;;;20.60;;
42978;SDS011;28616;44.746;19.678;2023-02-18T09:43:27;27.23;;;15.45;;
42978;SDS011;28616;44.746;19.678;2023-02-18T09:45:54;25.73;;;13.35;;
42978;SDS011;28616;44.746;19.678;2023-02-18T09:48:24;24.33;;;14.15;;
42978;SDS011;28616;44.746;19.678;2023-02-18T09:50:52;23.27;;;14.73;;
42978;SDS011;28616;44.746;19.678;2023-02-18T09:53:19;28.20;;;16.08;;
42978;SDS011;28616;44.746;19.678;2023-02-18T09:55:46;32.15;;;17.33;;
42978;SDS011;28616;44.746;19.678;2023-02-18T09:58:18;31.48;;;15.20;;
42978;SDS011;28616;44.746;19.678;2023-02-18T10:01:10;44.55;;;23.52;;
42978;SDS011;28616;44.746;19.678;2023-02-18T10:03:40;61.00;;;26.10;;
42978;SDS011;28616;44.746;19.678;2023-02-18T10:06:13;35.90;;;16.95;;
42978;SDS011;28616;44.746;19.678;2023-02-18T10:08:47;31.48;;;17.60;;
42978;SDS011;28616;44.746;19.678;2023-02-18T10:11:17;37.63;;;21.63;;
42978;SDS011;28616;44.746;19.678;2023-02-18T10:13:56;24.67;;;13.13;;
42978;SDS011;28616;44.746;19.678;2023-02-18T10:16:25;24.85;;;15.93;;
42978;SDS011;28616;44.746;19.678;2023-02-18T10:18:58;19.17;;;11.05;;
42978;SDS011;28616;44.746;19.678;2023-02-18T10:21:29;21.80;;;12.93;;
42978;SDS011;28616;44.746;19.678;2023-02-18T10:24:04;24.77;;;15.77;;
42978;SDS011;28616;44.746;19.678;2023-02-18T10:26:36;24.73;;;15.77;;
42978;SDS011;28616;44.746;19.678;2023-02-18T10:29:02;20.77;;;12.48;;
42978;SDS011;28616;44.746;19.678;2023-02-18T10:31:36;17.00;;;10.98;;
42978;SDS011;28616;44.746;19.678;2023-02-18T10:36:55;19.27;;;11.60;;
42978;SDS011;28616;44.746;19.678;2023-02-18T10:50:47;24.33;;;14.95;;
42978;SDS011;28616;44.746;19.678;2023-02-18T10:55:48;21.55;;;12.32;;
42978;SDS011;28616;44.746;19.678;2023-02-18T10:58:24;25.20;;;12.77;;
42978;SDS011;28616;44.746;19.678;2023-02-18T11:00:50;22.42;;;13.82;;
42978;SDS011;28616;44.746;19.678;2023-02-18T11:03:17;29.50;;;15.32;;
42978;SDS011;28616;44.746;19.678;2023-02-18T11:05:50;37.00;;;20.27;;
42978;SDS011;28616;44.746;19.678;2023-02-18T11:08:23;29.77;;;15.00;;
42978;SDS011;28616;44.746;19.678;2023-02-18T11:10:51;26.90;;;15.25;;
42978;SDS011;28616;44.746;19.678;2023-02-18T11:13:23;25.17;;;15.18;;
42978;SDS011;28616;44.746;19.678;2023-02-18T11:15:56;23.65;;;14.70;;
42978;SDS011;28616;44.746;19.678;2023-02-18T11:20:56;32.67;;;19.75;;
42978;SDS011;28616;44.746;19.678;2023-02-18T11:23:23;26.08;;;15.15;;
42978;SDS011;28616;44.746;19.678;2023-02-18T11:28:29;29.90;;;16.58;;
42978;SDS011;28616;44.746;19.678;2023-02-18T11:31:06;32.28;;;17.83;;
42978;SDS011;28616;44.746;19.678;2023-02-18T11:38:51;27.95;;;14.52;;
42978;SDS011;28616;44.746;19.678;2023-02-18T11:41:19;28.08;;;12.77;;
42978;SDS011;28616;44.746;19.678;2023-02-18T11:43:47;24.98;;;15.27;;
42978;SDS011;28616;44.746;19.678;2023-02-18T11:48:40;24.02;;;13.20;;
42978;SDS011;28616;44.746;19.678;2023-02-18T11:51:20;19.60;;;11.90;;
42978;SDS011;28616;44.746;19.678;2023-02-18T11:53:59;18.77;;;9.88;;
42978;SDS011;28616;44.746;19.678;2023-02-18T11:56:53;15.90;;;9.35;;
42978;SDS011;28616;44.746;19.678;2023-02-18T11:59:24;16.55;;;9.35;;
42978;SDS011;28616;44.746;19.678;2023-02-18T12:02:00;22.13;;;11.52;;
42978;SDS011;28616;44.746;19.678;2023-02-18T12:04:41;25.98;;;12.93;;
42978;SDS011;28616;44.746;19.678;2023-02-18T12:09:58;18.75;;;9.93;;
42978;SDS011;28616;44.746;19.678;2023-02-18T12:12:33;17.48;;;10.23;;
42978;SDS011;28616;44.746;19.678;2023-02-18T12:15:07;17.90;;;10.65;;
42978;SDS011;28616;44.746;19.678;2023-02-18T12:17:57;25.70;;;11.80;;
42978;SDS011;28616;44.746;19.678;2023-02-18T12:23:11;17.15;;;10.90;;
42978;SDS011;28616;44.746;19.678;2023-02-18T12:28:41;18.55;;;10.48;;
42978;SDS011;28616;44.746;19.678;2023-02-18T12:56:09;26.30;;;14.55;;
42978;SDS011;28616;44.746;19.678;2023-02-18T12:59:03;28.08;;;13.25;;
42978;SDS011;28616;44.746;19.678;2023-02-18T13:04:36;37.53;;;19.60;;
42978;SDS011;28616;44.746;19.678;2023-02-18T13:18:31;29.23;;;17.98;;
42978;SDS011;28616;44.746;19.678;2023-02-18T13:21:09;21.67;;;13.80;;
42978;SDS011;28616;44.746;19.678;2023-02-18T13:23:56;30.00;;;17.58;;
42978;SDS011;28616;44.746;19.678;2023-02-18T13:26:28;35.17;;;16.50;;
42978;SDS011;28616;44.746;19.678;2023-02-18T13:34:24;43.20;;;22.08;;
42978;SDS011;28616;44.746;19.678;2023-02-18T13:37:15;31.45;;;18.50;;
42978;SDS011;28616;44.746;19.678;2023-02-18T13:40:03;34.33;;;17.92;;
42978;SDS011;28616;44.746;19.678;2023-02-18T13:42:37;49.65;;;26.45;;
42978;SDS011;28616;44.746;19.678;2023-02-18T13:45:04;105.38;;;39.65;;
42978;SDS011;28616;44.746;19.678;2023-02-18T13:47:45;48.67;;;24.77;;
42978;SDS011;28616;44.746;19.678;2023-02-18T13:52:59;39.30;;;21.40;;
42978;SDS011;28616;44.746;19.678;2023-02-18T13:55:57;28.00;;;16.23;;
42978;SDS011;28616;44.746;19.678;2023-02-18T14:08:41;33.28;;;19.27;;
42978;SDS011;28616;44.746;19.678;2023-02-18T14:13:54;59.47;;;29.75;;
42978;SDS011;28616;44.746;19.678;2023-02-18T14:17:40;58.03;;;30.45;;
42978;SDS011;28616;44.746;19.678;2023-02-18T14:19:42;53.70;;;25.67;;
42978;SDS011;28616;44.746;19.678;2023-02-18T14:23:00;58.47;;;29.80;;
42978;SDS011;28616;44.746;19.678;2023-02-18T14:27:35;62.30;;;34.53;;
42978;SDS011;28616;44.746;19.678;2023-02-18T14:30:19;56.97;;;30.13;;
42978;SDS011;28616;44.746;19.678;2023-02-18T14:32:54;41.47;;;21.92;;
42978;SDS011;28616;44.746;19.678;2023-02-18T14:35:31;49.58;;;25.30;;
42978;SDS011;28616;44.746;19.678;2023-02-18T14:51:43;41.30;;;22.50;;
42978;SDS011;28616;44.746;19.678;2023-02-18T14:54:13;21.67;;;13.25;;
42978;SDS011;28616;44.746;19.678;2023-02-18T14:56:50;39.38;;;21.33;;
42978;SDS011;28616;44.746;19.678;2023-02-18T14:59:26;27.98;;;15.55;;
42978;SDS011;28616;44.746;19.678;2023-02-18T15:01:54;30.95;;;18.33;;
42978;SDS011;28616;44.746;19.678;2023-02-18T15:04:21;44.72;;;20.83;;
42978;SDS011;28616;44.746;19.678;2023-02-18T15:07:08;48.72;;;28.30;;
42978;SDS011;28616;44.746;19.678;2023-02-18T15:09:43;38.97;;;21.55;;
42978;SDS011;28616;44.746;19.678;2023-02-18T15:12:11;49.28;;;25.92;;
42978;SDS011;28616;44.746;19.678;2023-02-18T15:14:42;36.00;;;19.83;;
42978;SDS011;28616;44.746;19.678;2023-02-18T15:17:13;40.38;;;20.25;;
42978;SDS011;28616;44.746;19.678;2023-02-18T15:19:51;61.10;;;31.42;;
42978;SDS011;28616;44.746;19.678;2023-02-18T15:22:20;61.65;;;31.13;;
42978;SDS011;28616;44.746;19.678;2023-02-18T15:24:48;69.15;;;32.30;;
42978;SDS011;28616;44.746;19.678;2023-02-18T15:27:22;55.53;;;29.92;;
42978;SDS011;28616;44.746;19.678;2023-02-18T15:29:51;50.90;;;27.23;;
42978;SDS011;28616;44.746;19.678;2023-02-18T15:32:23;42.63;;;21.70;;
42978;SDS011;28616;44.746;19.678;2023-02-18T15:34:57;34.88;;;19.55;;
42978;SDS011;28616;44.746;19.678;2023-02-18T15:37:26;44.47;;;23.45;;
42978;SDS011;28616;44.746;19.678;2023-02-18T15:39:52;66.45;;;31.38;;
42978;SDS011;28616;44.746;19.678;2023-02-18T15:42:24;70.75;;;30.23;;
42978;SDS011;28616;44.746;19.678;2023-02-18T15:47:19;66.68;;;29.08;;
42978;SDS011;28616;44.746;19.678;2023-02-18T15:49:46;63.75;;;29.50;;
42978;SDS011;28616;44.746;19.678;2023-02-18T15:52:21;68.95;;;31.92;;
42978;SDS011;28616;44.746;19.678;2023-02-18T15:54:49;67.43;;;32.15;;
42978;SDS011;28616;44.746;19.678;2023-02-18T15:57:15;66.97;;;32.42;;
42978;SDS011;28616;44.746;19.678;2023-02-18T15:59:52;72.35;;;34.47;;
42978;SDS011;28616;44.746;19.678;2023-02-18T16:02:28;68.60;;;33.65;;
42978;SDS011;28616;44.746;19.678;2023-02-18T16:04:58;81.40;;;37.05;;
42978;SDS011;28616;44.746;19.678;2023-02-18T16:09:59;124.65;;;50.42;;
42978;SDS011;28616;44.746;19.678;2023-02-18T16:12:40;169.48;;;70.28;;
42978;SDS011;28616;44.746;19.678;2023-02-18T16:15:10;198.95;;;81.65;;
42978;SDS011;28616;44.746;19.678;2023-02-18T16:17:42;181.93;;;75.05;;
42978;SDS011;28616;44.746;19.678;2023-02-18T16:20:24;198.50;;;81.97;;
42978;SDS011;28616;44.746;19.678;2023-02-18T16:22:57;228.35;;;88.72;;
42978;SDS011;28616;44.746;19.678;2023-02-18T16:25:44;224.68;;;87.45;;
42978;SDS011;28616;44.746;19.678;2023-02-18T16:30:40;237.40;;;95.80;;
42978;SDS011;28616;44.746;19.678;2023-02-18T16:33:06;255.57;;;100.65;;
42978;SDS011;28616;44.746;19.678;2023-02-18T16:35:32;267.95;;;111.25;;
42978;SDS011;28616;44.746;19.678;2023-02-18T16:37:58;220.50;;;93.20;;
42978;SDS011;28616;44.746;19.678;2023-02-18T16:42:59;337.70;;;147.63;;
42978;SDS011;28616;44.746;19.678;2023-02-18T16:45:38;331.58;;;139.43;;
42978;SDS011;28616;44.746;19.678;2023-02-18T16:48:14;341.55;;;151.45;;
42978;SDS011;28616;44.746;19.678;2023-02-18T16:50:52;448.05;;;213.38;;
42978;SDS011;28616;44.746;19.678;2023-02-18T16:53:18;326.20;;;145.65;;
42978;SDS011;28616;44.746;19.678;2023-02-18T16:55:44;314.10;;;132.30;;
42978;SDS011;28616;44.746;19.678;2023-02-18T16:58:10;314.90;;;133.55;;
42978;SDS011;28616;44.746;19.678;2023-02-18T17:00:35;313.00;;;139.55;;